Time;durP1;ratioP1;P1;durP2;ratioP2;P2;SDS_P1;SDS_P2;PMS_P1;PMS_P2;Temp;Humidity;BMP_temperature;BMP_pressure;BME280_temperature;BME280_humidity;BME280_pressure;Samples;Min_cycle;Max_cycle;Signal;HPM_P1;HPM_P2
2023/12/14 00:00:32;;;;;;;0.20;0.20;;;;;;;;;;4991342;28;20097;-88
2023/12/14 00:02:58;;;;;;;0.30;0.30;;;;;;;;;;4991540;28;20478;-87
2023/12/14 00:05:24;;;;;;;0.20;0.20;;;;;;;;;;4975485;28;20050;-89
2023/12/14 00:07:50;;;;;;;0.20;0.20;;;;;;;;;;4975594;28;20045;-88
2023/12/14 00:10:17;;;;;;;0.30;0.30;;;;;;;;;;4990822;28;20038;-88
2023/12/14 00:12:44;;;;;;;0.10;0.10;;;;;;;;;;4991478;28;20054;-87
2023/12/14 00:15:10;;;;;;;0.10;0.10;;;;;;;;;;4991403;28;20046;-88
2023/12/14 00:17:36;;;;;;;0.10;0.10;;;;;;;;;;4975235;28;20084;-87
2023/12/14 00:20:03;;;;;;;0.10;0.10;;;;;;;;;;4991346;28;20423;-88
2023/12/14 00:22:29;;;;;;;0.10;0.10;;;;;;;;;;4975493;28;20046;-88
2023/12/14 00:24:55;;;;;;;0.10;0.10;;;;;;;;;;4991342;28;20062;-88
2023/12/14 00:27:21;;;;;;;0.10;0.10;;;;;;;;;;4975329;28;20492;-88
2023/12/14 00:29:47;;;;;;;0.10;0.10;;;;;;;;;;4991569;28;20042;-88
2023/12/14 00:32:13;;;;;;;0.10;0.10;;;;;;;;;;4975037;28;20096;-88
2023/12/14 00:34:40;;;;;;;0.10;0.10;;;;;;;;;;4975093;28;20042;-88
2023/12/14 00:37:06;;;;;;;0.10;0.10;;;;;;;;;;4991239;28;20042;-88
2023/12/14 00:39:32;;;;;;;0.10;0.10;;;;;;;;;;4975048;28;20038;-88
2023/12/14 00:41:58;;;;;;;0.10;0.10;;;;;;;;;;4991348;28;20398;-88
2023/12/14 00:44:24;;;;;;;0.20;0.20;;;;;;;;;;4975147;28;20039;-88
2023/12/14 00:46:50;;;;;;;0.10;0.10;;;;;;;;;;4975237;28;20069;-87
2023/12/14 00:49:18;;;;;;;0.20;0.20;;;;;;;;;;4974988;28;20482;-89
2023/12/14 00:51:44;;;;;;;0.20;0.20;;;;;;;;;;4974831;28;20038;-88
2023/12/14 00:54:10;;;;;;;0.10;0.10;;;;;;;;;;4991103;28;20049;-87
2023/12/14 00:56:36;;;;;;;0.10;0.10;;;;;;;;;;4991177;28;20042;-87
2023/12/14 00:59:02;;;;;;;0.10;0.10;;;;;;;;;;4975107;28;20042;-88
2023/12/14 01:01:28;;;;;;;0.40;0.40;;;;;;;;;;4974832;28;20137;-88
2023/12/14 01:03:54;;;;;;;0.20;0.20;;;;;;;;;;4974988;28;20050;-88
2023/12/14 01:06:20;;;;;;;0.20;0.20;;;;;;;;;;4975151;28;20053;-89
2023/12/14 01:08:46;;;;;;;0.20;0.20;;;;;;;;;;4991084;28;20068;-88
2023/12/14 01:11:12;;;;;;;0.10;0.10;;;;;;;;;;4990978;28;20125;-88
2023/12/14 01:13:38;;;;;;;0.20;0.20;;;;;;;;;;4975253;28;20480;-87
2023/12/14 01:16:04;;;;;;;0.22;0.22;;;;;;;;;;4974728;28;20046;-88
2023/12/14 01:18:31;;;;;;;0.45;0.38;;;;;;;;;;4974993;28;20082;-88
2023/12/14 01:20:57;;;;;;;0.10;0.10;;;;;;;;;;4991132;28;20458;-88
2023/12/14 01:23:23;;;;;;;0.20;0.20;;;;;;;;;;4994273;28;20518;-88
2023/12/14 01:25:49;;;;;;;0.10;0.10;;;;;;;;;;4994607;28;20081;-87
2023/12/14 01:28:15;;;;;;;0.10;0.10;;;;;;;;;;4978066;28;20108;-89
2023/12/14 01:30:41;;;;;;;0.10;0.10;;;;;;;;;;4978070;28;20038;-89
2023/12/14 01:33:07;;;;;;;1.08;0.60;;;;;;;;;;4994495;28;20042;-88
2023/12/14 01:35:33;;;;;;;0.20;0.20;;;;;;;;;;4978098;28;20465;-89
2023/12/14 01:37:59;;;;;;;0.10;0.10;;;;;;;;;;4978187;28;20038;-89
2023/12/14 01:40:25;;;;;;;0.32;0.32;;;;;;;;;;4994322;28;20034;-88
2023/12/14 01:42:51;;;;;;;0.20;0.20;;;;;;;;;;4994312;28;20038;-88
2023/12/14 01:45:18;;;;;;;0.25;0.25;;;;;;;;;;4977922;28;20038;-88
2023/12/14 01:47:44;;;;;;;0.40;0.40;;;;;;;;;;4993995;28;20046;-88
2023/12/14 01:50:10;;;;;;;0.40;0.40;;;;;;;;;;4977470;28;20049;-88
2023/12/14 01:52:36;;;;;;;0.30;0.30;;;;;;;;;;4977639;28;20035;-88
2023/12/14 01:55:02;;;;;;;0.10;0.10;;;;;;;;;;4993838;28;20552;-87
2023/12/14 01:57:28;;;;;;;0.10;0.10;;;;;;;;;;4993787;28;20034;-87
2023/12/14 01:59:54;;;;;;;0.10;0.10;;;;;;;;;;4977328;28;20089;-88
2023/12/14 02:02:20;;;;;;;0.10;0.10;;;;;;;;;;4994088;28;20046;-87
2023/12/14 02:04:47;;;;;;;0.10;0.10;;;;;;;;;;4977386;28;20042;-88
2023/12/14 02:07:14;;;;;;;0.10;0.10;;;;;;;;;;4977400;28;20045;-87
2023/12/14 02:09:40;;;;;;;0.20;0.20;;;;;;;;;;4977534;28;20054;-87
2023/12/14 02:12:06;;;;;;;0.30;0.30;;;;;;;;;;4977361;28;20545;-88
2023/12/14 02:14:32;;;;;;;0.13;0.13;;;;;;;;;;4977293;28;20489;-88
2023/12/14 02:16:58;;;;;;;0.10;0.10;;;;;;;;;;4977348;28;20110;-89
2023/12/14 02:19:24;;;;;;;0.20;0.20;;;;;;;;;;4993676;28;20056;-88
2023/12/14 02:21:50;;;;;;;0.10;0.10;;;;;;;;;;4977337;28;20134;-87
2023/12/14 02:24:16;;;;;;;0.30;0.30;;;;;;;;;;4993582;28;20042;-88
2023/12/14 02:26:42;;;;;;;0.52;0.52;;;;;;;;;;4993323;28;20046;-89
2023/12/14 02:29:08;;;;;;;0.10;0.10;;;;;;;;;;4977133;28;20053;-88
2023/12/14 02:31:34;;;;;;;0.10;0.10;;;;;;;;;;4993227;28;20046;-88
2023/12/14 02:34:00;;;;;;;0.10;0.10;;;;;;;;;;4976246;28;20375;-89
2023/12/14 02:36:26;;;;;;;0.10;0.10;;;;;;;;;;4977148;28;20093;-88
2023/12/14 02:38:52;;;;;;;0.10;0.10;;;;;;;;;;4976902;28;20145;-88
2023/12/14 02:41:18;;;;;;;0.10;0.10;;;;;;;;;;4976899;28;20121;-88
2023/12/14 02:43:44;;;;;;;0.10;0.10;;;;;;;;;;4976789;28;20042;-88
2023/12/14 02:46:11;;;;;;;0.10;0.10;;;;;;;;;;4977179;28;20150;-89
2023/12/14 02:48:38;;;;;;;0.10;0.10;;;;;;;;;;4976762;28;20046;-88
2023/12/14 02:51:04;;;;;;;0.10;0.10;;;;;;;;;;4976810;28;20056;-89
2023/12/14 02:53:30;;;;;;;0.10;0.10;;;;;;;;;;4976713;28;20046;-86
2023/12/14 02:55:56;;;;;;;0.10;0.10;;;;;;;;;;4976880;28;20482;-89
2023/12/14 02:58:22;;;;;;;0.10;0.10;;;;;;;;;;4992962;28;20035;-89
2023/12/14 03:00:48;;;;;;;0.10;0.10;;;;;;;;;;4992496;28;20133;-88
2023/12/14 03:03:15;;;;;;;0.30;0.30;;;;;;;;;;4976474;28;20065;-89
2023/12/14 03:05:40;;;;;;;0.10;0.10;;;;;;;;;;4976980;28;20078;-89
2023/12/14 03:08:06;;;;;;;0.20;0.20;;;;;;;;;;4993344;28;20202;-87
2023/12/14 03:10:33;;;;;;;0.10;0.10;;;;;;;;;;4992535;28;20274;-88
2023/12/14 03:12:58;;;;;;;0.10;0.10;;;;;;;;;;4992870;28;20153;-89
2023/12/14 03:15:25;;;;;;;0.25;0.25;;;;;;;;;;4976609;28;20129;-87
2023/12/14 03:17:51;;;;;;;0.10;0.10;;;;;;;;;;4976201;28;20049;-88
2023/12/14 03:20:17;;;;;;;0.10;0.10;;;;;;;;;;4992261;28;20030;-88
2023/12/14 03:22:43;;;;;;;0.15;0.15;;;;;;;;;;4976379;28;20668;-87
2023/12/14 03:25:10;;;;;;;0.10;0.10;;;;;;;;;;4976291;28;20073;-88
2023/12/14 03:27:36;;;;;;;0.20;0.20;;;;;;;;;;4975882;28;20045;-88
2023/12/14 03:30:03;;;;;;;0.10;0.10;;;;;;;;;;4992104;28;20125;-87
2023/12/14 03:32:29;;;;;;;0.10;0.10;;;;;;;;;;4976295;28;20054;-87
2023/12/14 03:34:55;;;;;;;0.20;0.20;;;;;;;;;;4975889;28;20109;-88
2023/12/14 03:37:21;;;;;;;0.10;0.10;;;;;;;;;;4992214;28;20042;-88
2023/12/14 03:39:47;;;;;;;0.10;0.10;;;;;;;;;;4991933;28;20042;-87
2023/12/14 03:42:13;;;;;;;0.10;0.10;;;;;;;;;;4975951;28;20379;-87
2023/12/14 03:44:39;;;;;;;0.10;0.10;;;;;;;;;;4975889;28;20045;-88
2023/12/14 03:47:05;;;;;;;0.10;0.10;;;;;;;;;;4991937;28;20398;-87
2023/12/14 03:49:31;;;;;;;0.20;0.20;;;;;;;;;;4975979;28;20046;-88
2023/12/14 03:51:58;;;;;;;0.10;0.10;;;;;;;;;;4976018;28;20042;-91
2023/12/14 03:54:24;;;;;;;0.30;0.30;;;;;;;;;;4975814;28;20049;-88
2023/12/14 03:56:50;;;;;;;0.10;0.10;;;;;;;;;;4991713;28;20042;-88
2023/12/14 03:59:16;;;;;;;0.38;0.38;;;;;;;;;;4975654;28;20434;-88
2023/12/14 04:01:42;;;;;;;0.10;0.10;;;;;;;;;;4991455;28;20073;-88
2023/12/14 04:04:09;;;;;;;0.10;0.10;;;;;;;;;;4975468;28;20043;-88
2023/12/14 04:06:35;;;;;;;0.13;0.13;;;;;;;;;;4991822;28;20427;-89
2023/12/14 04:09:01;;;;;;;0.10;0.10;;;;;;;;;;4975833;28;20050;-87
2023/12/14 04:11:27;;;;;;;0.20;0.20;;;;;;;;;;4975533;28;20039;-87
2023/12/14 04:13:53;;;;;;;0.10;0.10;;;;;;;;;;4975811;28;20050;-87
2023/12/14 04:16:22;;;;;;;0.10;0.10;;;;;;;;;;4991710;28;20043;-88
2023/12/14 04:18:49;;;;;;;0.20;0.20;;;;;;;;;;4991982;28;20429;-88
2023/12/14 04:21:15;;;;;;;0.20;0.20;;;;;;;;;;4975310;28;20038;-88
2023/12/14 04:23:41;;;;;;;0.10;0.10;;;;;;;;;;4991782;28;20038;-87
2023/12/14 04:26:09;;;;;;;0.10;0.10;;;;;;;;;;4975781;28;20548;-88
2023/12/14 04:28:35;;;;;;;0.10;0.10;;;;;;;;;;4991906;28;20066;-88
2023/12/14 04:31:01;;;;;;;0.10;0.10;;;;;;;;;;4975581;28;20053;-88
2023/12/14 04:33:27;;;;;;;0.10;0.10;;;;;;;;;;4975135;28;20038;-87
2023/12/14 04:35:53;;;;;;;0.10;0.10;;;;;;;;;;4975103;28;20111;-88
2023/12/14 04:38:19;;;;;;;0.10;0.10;;;;;;;;;;4975266;28;20034;-88
2023/12/14 04:40:45;;;;;;;0.20;0.20;;;;;;;;;;4991245;28;20039;-88
2023/12/14 04:43:12;;;;;;;0.10;0.10;;;;;;;;;;4991301;28;20042;-88
2023/12/14 04:45:38;;;;;;;0.10;0.10;;;;;;;;;;4975653;28;20049;-88
2023/12/14 04:48:04;;;;;;;0.10;0.10;;;;;;;;;;4975602;28;20121;-88
2023/12/14 04:50:30;;;;;;;0.10;0.10;;;;;;;;;;4975601;28;20074;-88
2023/12/14 04:52:56;;;;;;;0.10;0.10;;;;;;;;;;4975366;28;20039;-88
2023/12/14 04:55:22;;;;;;;0.40;0.40;;;;;;;;;;4975314;28;20115;-88
2023/12/14 04:57:48;;;;;;;0.10;0.10;;;;;;;;;;4977508;28;20560;-88
2023/12/14 05:00:15;;;;;;;0.10;0.10;;;;;;;;;;4978757;28;20053;-87
2023/12/14 05:02:41;;;;;;;0.10;0.10;;;;;;;;;;4978730;28;20364;-87
2023/12/14 05:05:07;;;;;;;0.10;0.10;;;;;;;;;;4979109;28;20041;-87
2023/12/14 05:07:33;;;;;;;0.10;0.10;;;;;;;;;;4995348;28;20053;-87
2023/12/14 05:09:59;;;;;;;0.45;0.20;;;;;;;;;;4994941;28;20130;-87
2023/12/14 05:12:26;;;;;;;0.10;0.10;;;;;;;;;;4978478;28;20050;-87
2023/12/14 05:14:53;;;;;;;0.10;0.10;;;;;;;;;;4978506;28;20043;-87
2023/12/14 05:17:19;;;;;;;0.10;0.10;;;;;;;;;;4978462;28;20512;-88
2023/12/14 05:19:46;;;;;;;0.10;0.10;;;;;;;;;;4994498;28;20125;-87
2023/12/14 05:22:12;;;;;;;0.10;0.10;;;;;;;;;;4978812;28;20042;-87
2023/12/14 05:24:38;;;;;;;0.10;0.10;;;;;;;;;;4994517;28;20046;-88
2023/12/14 05:27:04;;;;;;;0.10;0.10;;;;;;;;;;4994733;28;20046;-88
2023/12/14 05:29:32;;;;;;;0.10;0.10;;;;;;;;;;4978371;28;20038;-87
2023/12/14 05:31:59;;;;;;;0.10;0.10;;;;;;;;;;4978293;28;20042;-88
2023/12/14 05:34:25;;;;;;;0.30;0.30;;;;;;;;;;4994999;28;20435;-88
2023/12/14 05:36:51;;;;;;;0.10;0.10;;;;;;;;;;4977945;28;20078;-87
2023/12/14 05:39:17;;;;;;;0.10;0.10;;;;;;;;;;4978234;28;20042;-88
2023/12/14 05:41:43;;;;;;;0.10;0.10;;;;;;;;;;4978144;28;20042;-88
2023/12/14 05:44:09;;;;;;;0.10;0.10;;;;;;;;;;4978278;28;20039;-87
2023/12/14 05:46:35;;;;;;;0.25;0.20;;;;;;;;;;4994207;28;20068;-87
2023/12/14 05:49:01;;;;;;;0.10;0.10;;;;;;;;;;4994149;28;20193;-88
2023/12/14 05:51:28;;;;;;;0.10;0.10;;;;;;;;;;4977793;28;20438;-88
2023/12/14 05:53:54;;;;;;;0.10;0.10;;;;;;;;;;4977602;28;20479;-87
2023/12/14 05:56:20;;;;;;;0.10;0.10;;;;;;;;;;4993897;28;20520;-89
2023/12/14 05:58:46;;;;;;;0.10;0.10;;;;;;;;;;4977651;28;20035;-87
2023/12/14 06:01:13;;;;;;;0.10;0.10;;;;;;;;;;4993795;28;20047;-87
2023/12/14 06:03:39;;;;;;;0.10;0.10;;;;;;;;;;4977769;28;20113;-87
2023/12/14 06:06:05;;;;;;;0.10;0.10;;;;;;;;;;4977672;28;20046;-87
2023/12/14 06:08:31;;;;;;;0.10;0.10;;;;;;;;;;4976117;28;20046;-87
2023/12/14 06:10:57;;;;;;;0.10;0.10;;;;;;;;;;4977243;28;20046;-87
2023/12/14 06:13:23;;;;;;;0.10;0.10;;;;;;;;;;4993565;28;20421;-88
2023/12/14 06:15:49;;;;;;;0.10;0.10;;;;;;;;;;4977453;28;20074;-86
2023/12/14 06:18:15;;;;;;;0.10;0.10;;;;;;;;;;4993511;28;20133;-87
2023/12/14 06:20:41;;;;;;;0.10;0.10;;;;;;;;;;4993538;28;20049;-87
2023/12/14 06:23:07;;;;;;;0.10;0.10;;;;;;;;;;4993418;28;20082;-88
2023/12/14 06:25:33;;;;;;;0.10;0.10;;;;;;;;;;4993451;28;20053;-86
2023/12/14 06:27:59;;;;;;;0.38;0.38;;;;;;;;;;4977405;28;20042;-87
2023/12/14 06:30:25;;;;;;;0.10;0.10;;;;;;;;;;4993176;28;20077;-87
2023/12/14 06:32:51;;;;;;;0.10;0.10;;;;;;;;;;4993185;28;20121;-87
2023/12/14 06:35:17;;;;;;;0.10;0.10;;;;;;;;;;4976896;28;20374;-87
2023/12/14 06:37:43;;;;;;;0.20;0.20;;;;;;;;;;4993148;28;20042;-87
2023/12/14 06:40:09;;;;;;;0.10;0.10;;;;;;;;;;4977165;28;20038;-87
2023/12/14 06:42:35;;;;;;;0.10;0.10;;;;;;;;;;4976757;28;20398;-86
2023/12/14 06:45:02;;;;;;;0.50;0.50;;;;;;;;;;4993041;28;20046;-86
2023/12/14 06:47:28;;;;;;;0.10;0.10;;;;;;;;;;4976841;28;20084;-87
2023/12/14 06:49:56;;;;;;;0.30;0.30;;;;;;;;;;4992885;28;20494;-87
2023/12/14 06:52:22;;;;;;;0.10;0.10;;;;;;;;;;4993030;28;20050;-88
2023/12/14 06:54:48;;;;;;;0.10;0.10;;;;;;;;;;4993335;28;20039;-88
2023/12/14 06:57:14;;;;;;;0.10;0.10;;;;;;;;;;4976725;28;20393;-86
2023/12/14 06:59:41;;;;;;;0.10;0.10;;;;;;;;;;4976404;28;20038;-88
2023/12/14 07:02:07;;;;;;;0.10;0.10;;;;;;;;;;4976753;28;20046;-87
2023/12/14 07:04:33;;;;;;;0.10;0.10;;;;;;;;;;4976582;28;20042;-88
2023/12/14 07:06:59;;;;;;;0.10;0.10;;;;;;;;;;4976509;28;20320;-87
2023/12/14 07:09:25;;;;;;;0.10;0.10;;;;;;;;;;4976510;28;20045;-87
2023/12/14 07:11:53;;;;;;;0.57;0.40;;;;;;;;;;4992848;28;20038;-87
2023/12/14 07:14:19;;;;;;;0.20;0.20;;;;;;;;;;4976403;28;20042;-88
2023/12/14 07:16:45;;;;;;;0.10;0.10;;;;;;;;;;4976499;28;20077;-88
2023/12/14 07:19:12;;;;;;;0.10;0.10;;;;;;;;;;4992097;28;20092;-88
2023/12/14 07:21:38;;;;;;;0.20;0.20;;;;;;;;;;4992451;28;20045;-87
2023/12/14 07:24:04;;;;;;;0.10;0.10;;;;;;;;;;4976739;28;20038;-87
2023/12/14 07:26:30;;;;;;;0.10;0.10;;;;;;;;;;4976536;28;20136;-88
2023/12/14 07:28:56;;;;;;;1.17;1.08;;;;;;;;;;4992397;28;20435;-88
2023/12/14 07:31:22;;;;;;;0.35;0.35;;;;;;;;;;4976202;28;20085;-87
2023/12/14 07:33:48;;;;;;;0.10;0.10;;;;;;;;;;4976104;28;20049;-88
2023/12/14 07:36:14;;;;;;;0.10;0.10;;;;;;;;;;4992604;28;20039;-88
2023/12/14 07:38:40;;;;;;;0.10;0.10;;;;;;;;;;4992292;28;20078;-88
2023/12/14 07:41:06;;;;;;;0.10;0.10;;;;;;;;;;4976401;28;20039;-88
2023/12/14 07:43:32;;;;;;;0.10;0.10;;;;;;;;;;4975978;28;20573;-87
2023/12/14 07:45:58;;;;;;;0.10;0.10;;;;;;;;;;4992254;28;20147;-87
2023/12/14 07:48:24;;;;;;;0.20;0.20;;;;;;;;;;4974349;28;20045;-87
2023/12/14 07:50:51;;;;;;;0.10;0.10;;;;;;;;;;4975553;28;20046;-88
2023/12/14 07:53:17;;;;;;;0.10;0.10;;;;;;;;;;4987297;28;20057;-87
2023/12/14 07:55:44;;;;;;;0.10;0.10;;;;;;;;;;4995577;28;20053;-87
2023/12/14 07:58:10;;;;;;;0.10;0.10;;;;;;;;;;5011107;28;20060;-89
2023/12/14 08:00:36;;;;;;;0.10;0.10;;;;;;;;;;4995450;28;20401;-88
2023/12/14 08:03:02;;;;;;;0.30;0.30;;;;;;;;;;4994946;28;20053;-89
2023/12/14 08:05:29;;;;;;;0.10;0.10;;;;;;;;;;4995022;28;20383;-88
2023/12/14 08:07:55;;;;;;;0.10;0.10;;;;;;;;;;5011159;28;20034;-89
2023/12/14 08:10:21;;;;;;;0.20;0.20;;;;;;;;;;4995008;28;20573;-94
2023/12/14 08:12:47;;;;;;;0.10;0.10;;;;;;;;;;4995749;28;20069;-89
2023/12/14 08:15:13;;;;;;;0.10;0.10;;;;;;;;;;4995348;28;20087;-89
2023/12/14 08:17:39;;;;;;;0.10;0.10;;;;;;;;;;4989167;28;20096;-90
2023/12/14 08:20:08;;;;;;;0.10;0.10;;;;;;;;;;4975499;28;20038;-90
2023/12/14 08:22:35;;;;;;;0.10;0.10;;;;;;;;;;4980212;28;20524;-90
2023/12/14 08:25:03;;;;;;;0.10;0.10;;;;;;;;;;4995366;28;20567;-90
2023/12/14 08:27:29;;;;;;;0.10;0.10;;;;;;;;;;4994913;28;20073;-90
2023/12/14 08:29:55;;;;;;;0.10;0.10;;;;;;;;;;4995239;28;20046;-89
2023/12/14 08:32:21;;;;;;;0.10;0.10;;;;;;;;;;4997030;28;20513;-89
2023/12/14 08:34:47;;;;;;;0.10;0.10;;;;;;;;;;4999189;28;20077;-89
2023/12/14 08:37:13;;;;;;;0.13;0.13;;;;;;;;;;4998977;28;20042;-89
2023/12/14 08:39:39;;;;;;;0.30;0.30;;;;;;;;;;4998660;28;20045;-89
2023/12/14 08:42:05;;;;;;;0.20;0.20;;;;;;;;;;4998709;28;20061;-94
2023/12/14 08:44:31;;;;;;;0.10;0.10;;;;;;;;;;4998576;28;20042;-90
2023/12/14 08:46:57;;;;;;;0.10;0.10;;;;;;;;;;4995887;28;20096;-90
2023/12/14 08:49:23;;;;;;;0.75;0.20;;;;;;;;;;4979372;28;20042;-91
2023/12/14 08:51:49;;;;;;;0.10;0.10;;;;;;;;;;4979116;28;20069;-89
2023/12/14 08:54:15;;;;;;;0.10;0.10;;;;;;;;;;4980345;28;20192;-91
2023/12/14 08:56:41;;;;;;;0.10;0.10;;;;;;;;;;4979688;28;20105;-91
2023/12/14 08:59:09;;;;;;;0.10;0.10;;;;;;;;;;4995699;28;20430;-91
2023/12/14 09:01:35;;;;;;;0.10;0.10;;;;;;;;;;4976177;28;20061;-90
2023/12/14 09:04:01;;;;;;;0.10;0.10;;;;;;;;;;4960184;28;20089;-90
2023/12/14 09:06:27;;;;;;;0.10;0.10;;;;;;;;;;4976046;28;20046;-90
2023/12/14 09:08:53;;;;;;;0.10;0.10;;;;;;;;;;4975861;28;20045;-90
2023/12/14 09:11:19;;;;;;;0.10;0.10;;;;;;;;;;4975801;28;20214;-89
2023/12/14 09:13:45;;;;;;;0.10;0.10;;;;;;;;;;4959420;28;20234;-90
2023/12/14 09:16:11;;;;;;;0.10;0.10;;;;;;;;;;4975517;28;20177;-89
2023/12/14 09:18:37;;;;;;;0.10;0.10;;;;;;;;;;4975367;28;20042;-90
2023/12/14 09:21:04;;;;;;;0.10;0.10;;;;;;;;;;4959266;28;20407;-90
2023/12/14 09:23:30;;;;;;;0.10;0.10;;;;;;;;;;4975538;28;20479;-90
2023/12/14 09:25:57;;;;;;;0.10;0.10;;;;;;;;;;4991365;28;20043;-89
2023/12/14 09:28:23;;;;;;;0.10;0.10;;;;;;;;;;4975685;28;20477;-89
2023/12/14 09:30:49;;;;;;;0.10;0.10;;;;;;;;;;4975410;28;20125;-94
2023/12/14 09:33:16;;;;;;;0.10;0.10;;;;;;;;;;4976853;28;20054;-90
2023/12/14 09:35:42;;;;;;;0.10;0.10;;;;;;;;;;4975633;28;20150;-90
2023/12/14 09:38:08;;;;;;;0.10;0.10;;;;;;;;;;4975252;28;20050;-91
2023/12/14 09:40:34;;;;;;;0.10;0.10;;;;;;;;;;4975515;28;20043;-91
2023/12/14 09:43:00;;;;;;;0.10;0.10;;;;;;;;;;4959584;28;20042;-90
2023/12/14 09:45:29;;;;;;;0.10;0.10;;;;;;;;;;4959114;28;20358;-88
2023/12/14 09:47:59;;;;;;;0.10;0.10;;;;;;;;;;4958561;28;20046;-88
2023/12/14 09:50:25;;;;;;;0.10;0.10;;;;;;;;;;4990480;28;20202;-87
2023/12/14 09:52:51;;;;;;;0.10;0.10;;;;;;;;;;4958715;28;20081;-89
2023/12/14 09:55:17;;;;;;;0.10;0.10;;;;;;;;;;4958666;28;20035;-89
2023/12/14 09:57:43;;;;;;;0.10;0.10;;;;;;;;;;4958241;28;20046;-89
2023/12/14 10:00:14;;;;;;;0.10;0.10;;;;;;;;;;4959140;28;20054;-88
2023/12/14 10:02:40;;;;;;;0.10;0.10;;;;;;;;;;4960668;28;20042;-89
2023/12/14 10:05:08;;;;;;;0.10;0.10;;;;;;;;;;4973613;28;20442;-89
2023/12/14 10:07:34;;;;;;;0.10;0.10;;;;;;;;;;4974083;28;20514;-88
2023/12/14 10:10:10;;;;;;;0.10;0.10;;;;;;;;;;4973884;28;20046;-88
2023/12/14 10:12:45;;;;;;;0.10;0.10;;;;;;;;;;4973971;28;20490;-89
2023/12/14 10:15:11;;;;;;;0.10;0.10;;;;;;;;;;4958210;28;20053;-91
2023/12/14 10:17:37;;;;;;;0.20;0.20;;;;;;;;;;4958660;28;20136;-91
2023/12/14 10:20:05;;;;;;;0.10;0.10;;;;;;;;;;4957885;28;20046;-88
2023/12/14 10:22:32;;;;;;;0.20;0.20;;;;;;;;;;4959029;28;20039;-86
2023/12/14 10:24:59;;;;;;;0.20;0.20;;;;;;;;;;4973803;28;20129;-87
2023/12/14 10:27:25;;;;;;;0.10;0.10;;;;;;;;;;4974924;28;20081;-91
2023/12/14 10:29:51;;;;;;;0.10;0.10;;;;;;;;;;4958476;28;20475;-88
2023/12/14 10:32:18;;;;;;;0.10;0.10;;;;;;;;;;4958326;28;20054;-90
2023/12/14 10:34:44;;;;;;;0.10;0.10;;;;;;;;;;4973996;28;20042;-90
2023/12/14 10:37:10;;;;;;;0.10;0.10;;;;;;;;;;4957438;28;20042;-91
2023/12/14 10:39:36;;;;;;;0.10;0.10;;;;;;;;;;4974728;28;20201;-92
2023/12/14 10:42:03;;;;;;;0.10;0.10;;;;;;;;;;4957961;28;20045;-90
2023/12/14 10:44:29;;;;;;;0.10;0.10;;;;;;;;;;4957889;28;20054;-90
2023/12/14 10:46:56;;;;;;;0.10;0.10;;;;;;;;;;4957750;28;20053;-90
2023/12/14 10:49:24;;;;;;;0.10;0.10;;;;;;;;;;4975295;28;20039;-87
2023/12/14 10:51:50;;;;;;;0.10;0.10;;;;;;;;;;4975493;28;20035;-96
2023/12/14 10:54:16;;;;;;;0.10;0.10;;;;;;;;;;4969357;28;20054;-91
2023/12/14 10:56:42;;;;;;;0.10;0.10;;;;;;;;;;4955194;29;20126;-91
2023/12/14 10:59:08;;;;;;;0.10;0.10;;;;;;;;;;4963083;28;20398;-90
2023/12/14 11:01:39;;;;;;;0.10;0.10;;;;;;;;;;4957432;28;20086;-91
2023/12/14 11:04:05;;;;;;;0.10;0.10;;;;;;;;;;4958408;28;20098;-90
2023/12/14 11:06:31;;;;;;;0.10;0.10;;;;;;;;;;4973407;28;20050;-86
2023/12/14 11:08:59;;;;;;;0.20;0.20;;;;;;;;;;4956975;28;20069;-88
2023/12/14 11:11:28;;;;;;;0.10;0.10;;;;;;;;;;4973315;28;20367;-88
2023/12/14 11:13:54;;;;;;;0.10;0.10;;;;;;;;;;4956945;28;20403;-88
2023/12/14 11:16:21;;;;;;;0.10;0.10;;;;;;;;;;4956950;28;20050;-87
2023/12/14 11:18:47;;;;;;;0.10;0.10;;;;;;;;;;4956946;28;20093;-89
2023/12/14 11:21:19;;;;;;;0.10;0.10;;;;;;;;;;4957091;28;20038;-89
2023/12/14 11:23:45;;;;;;;0.10;0.10;;;;;;;;;;4957269;28;20530;-89
2023/12/14 11:26:11;;;;;;;0.10;0.10;;;;;;;;;;4956880;28;20494;-89
2023/12/14 11:28:42;;;;;;;0.10;0.10;;;;;;;;;;4972867;28;20078;-88
2023/12/14 11:31:10;;;;;;;0.10;0.10;;;;;;;;;;4957270;28;20042;-88
2023/12/14 11:33:36;;;;;;;0.10;0.10;;;;;;;;;;4956659;28;20048;-87
2023/12/14 11:36:05;;;;;;;0.10;0.10;;;;;;;;;;4956673;28;20050;-88
2023/12/14 11:38:32;;;;;;;0.10;0.10;;;;;;;;;;4957345;28;20038;-88
2023/12/14 11:40:59;;;;;;;0.10;0.10;;;;;;;;;;4956915;28;20043;-88
2023/12/14 11:43:26;;;;;;;0.10;0.10;;;;;;;;;;4956811;28;20067;-87
2023/12/14 11:45:52;;;;;;;0.10;0.10;;;;;;;;;;4956851;28;20054;-88
2023/12/14 11:48:20;;;;;;;0.10;0.10;;;;;;;;;;4956562;28;20046;-88
2023/12/14 11:50:47;;;;;;;0.10;0.10;;;;;;;;;;4956697;28;20082;-87
2023/12/14 11:53:13;;;;;;;0.10;0.10;;;;;;;;;;4956610;28;20525;-88
2023/12/14 11:55:40;;;;;;;0.10;0.10;;;;;;;;;;4956523;28;20051;-88
2023/12/14 11:58:07;;;;;;;0.10;0.10;;;;;;;;;;4956573;28;20042;-88
2023/12/14 12:00:35;;;;;;;0.10;0.10;;;;;;;;;;4960523;28;20069;-88
2023/12/14 12:03:11;;;;;;;0.10;0.10;;;;;;;;;;4972539;28;20038;-88
2023/12/14 12:05:40;;;;;;;0.10;0.10;;;;;;;;;;4972037;28;20042;-88
2023/12/14 12:08:06;;;;;;;0.47;0.47;;;;;;;;;;4971866;28;20089;-88
2023/12/14 12:10:33;;;;;;;0.10;0.10;;;;;;;;;;4972370;28;20394;-87
2023/12/14 12:13:04;;;;;;;0.10;0.10;;;;;;;;;;4972081;28;20047;-86
2023/12/14 12:15:31;;;;;;;0.10;0.10;;;;;;;;;;4972436;28;20372;-87
2023/12/14 12:17:58;;;;;;;0.10;0.10;;;;;;;;;;4972116;28;20043;-87
2023/12/14 12:20:25;;;;;;;0.10;0.10;;;;;;;;;;4972076;28;20042;-88
2023/12/14 12:22:54;;;;;;;0.10;0.10;;;;;;;;;;4972624;28;20039;-88
2023/12/14 12:25:20;;;;;;;0.10;0.10;;;;;;;;;;4972409;28;20471;-89
2023/12/14 12:27:49;;;;;;;0.10;0.10;;;;;;;;;;4972137;28;20566;-89
2023/12/14 12:30:15;;;;;;;0.10;0.10;;;;;;;;;;4972218;28;20050;-88
2023/12/14 12:32:41;;;;;;;0.10;0.10;;;;;;;;;;4972029;28;20054;-87
2023/12/14 12:35:08;;;;;;;0.10;0.10;;;;;;;;;;4970276;28;20125;-89
2023/12/14 12:37:34;;;;;;;0.10;0.10;;;;;;;;;;4956134;28;20085;-90
2023/12/14 12:40:00;;;;;;;0.10;0.10;;;;;;;;;;4970326;28;20081;-90
2023/12/14 12:42:26;;;;;;;0.10;0.10;;;;;;;;;;4972217;28;20039;-88
2023/12/14 12:44:52;;;;;;;0.10;0.10;;;;;;;;;;4968807;28;20132;-88
2023/12/14 12:47:19;;;;;;;0.10;0.10;;;;;;;;;;4968485;28;20185;-87
2023/12/14 12:49:45;;;;;;;0.10;0.10;;;;;;;;;;4980526;28;20053;-87
2023/12/14 12:52:11;;;;;;;0.20;0.20;;;;;;;;;;4972028;28;20038;-87
2023/12/14 12:54:37;;;;;;;0.10;0.10;;;;;;;;;;4955485;28;20140;-88
2023/12/14 12:57:03;;;;;;;0.10;0.10;;;;;;;;;;4971600;28;20043;-88
2023/12/14 12:59:29;;;;;;;0.10;0.10;;;;;;;;;;4971823;28;20181;-87
2023/12/14 13:01:55;;;;;;;0.10;0.10;;;;;;;;;;4971937;28;20137;-91
2023/12/14 13:04:22;;;;;;;0.20;0.20;;;;;;;;;;4955798;28;20035;-90
2023/12/14 13:06:48;;;;;;;0.10;0.10;;;;;;;;;;4955972;28;20066;-90
2023/12/14 13:09:14;;;;;;;0.10;0.10;;;;;;;;;;4956014;28;20047;-90
2023/12/14 13:11:40;;;;;;;0.10;0.10;;;;;;;;;;4955940;28;20459;-89
2023/12/14 13:14:07;;;;;;;0.10;0.10;;;;;;;;;;4955656;28;20039;-89
2023/12/14 13:16:37;;;;;;;0.10;0.10;;;;;;;;;;4956037;28;20093;-88
2023/12/14 13:19:03;;;;;;;0.10;0.10;;;;;;;;;;4958554;28;20085;-91
2023/12/14 13:21:30;;;;;;;0.10;0.10;;;;;;;;;;4959530;28;20038;-90
2023/12/14 13:23:59;;;;;;;0.10;0.10;;;;;;;;;;4959237;28;20039;-90
2023/12/14 13:26:25;;;;;;;0.10;0.10;;;;;;;;;;4958434;28;20039;-89
2023/12/14 13:28:52;;;;;;;0.10;0.10;;;;;;;;;;4959799;28;20054;-89
2023/12/14 13:31:18;;;;;;;0.13;0.13;;;;;;;;;;4959058;28;20069;-89
2023/12/14 13:33:45;;;;;;;0.10;0.10;;;;;;;;;;4958738;28;20047;-88
2023/12/14 13:36:11;;;;;;;0.10;0.10;;;;;;;;;;4958686;28;20043;-87
2023/12/14 13:38:37;;;;;;;0.15;0.15;;;;;;;;;;4959136;28;20046;-88
2023/12/14 13:41:03;;;;;;;0.30;0.30;;;;;;;;;;4958743;28;20034;-86
2023/12/14 13:43:29;;;;;;;0.10;0.10;;;;;;;;;;4958552;28;20406;-87
2023/12/14 13:45:58;;;;;;;0.10;0.10;;;;;;;;;;4958403;28;20049;-88
2023/12/14 13:48:25;;;;;;;0.10;0.10;;;;;;;;;;4958936;28;20054;-89
2023/12/14 13:50:51;;;;;;;0.10;0.10;;;;;;;;;;4958547;28;20082;-88
2023/12/14 13:53:17;;;;;;;0.20;0.20;;;;;;;;;;4958513;28;20073;-88
2023/12/14 13:55:43;;;;;;;0.10;0.10;;;;;;;;;;4958467;28;20047;-89
2023/12/14 13:58:09;;;;;;;0.10;0.10;;;;;;;;;;4958407;28;20411;-87
2023/12/14 14:00:36;;;;;;;0.10;0.10;;;;;;;;;;4962715;28;20066;-88
2023/12/14 14:03:03;;;;;;;0.10;0.10;;;;;;;;;;4973468;28;20406;-87
2023/12/14 14:05:29;;;;;;;0.10;0.10;;;;;;;;;;4940528;28;20054;-89
2023/12/14 14:07:55;;;;;;;0.10;0.10;;;;;;;;;;4974112;28;20039;-86
2023/12/14 14:10:21;;;;;;;0.85;0.20;;;;;;;;;;4957713;28;20042;-88
2023/12/14 14:12:47;;;;;;;0.10;0.10;;;;;;;;;;4973811;28;20042;-87
2023/12/14 14:15:13;;;;;;;0.10;0.10;;;;;;;;;;4986598;28;20050;-87
2023/12/14 14:17:39;;;;;;;0.10;0.10;;;;;;;;;;4957585;28;20047;-88
2023/12/14 14:20:06;;;;;;;0.10;0.10;;;;;;;;;;4973578;28;20383;-89
2023/12/14 14:22:33;;;;;;;0.10;0.10;;;;;;;;;;4957723;28;20104;-87
2023/12/14 14:24:59;;;;;;;0.10;0.10;;;;;;;;;;4973854;28;20129;-87
2023/12/14 14:27:25;;;;;;;0.10;0.10;;;;;;;;;;4973786;28;20198;-91
2023/12/14 14:29:53;;;;;;;0.10;0.10;;;;;;;;;;4956660;28;20051;-88
2023/12/14 14:32:20;;;;;;;0.10;0.10;;;;;;;;;;4957464;28;20050;-87
2023/12/14 14:34:46;;;;;;;0.10;0.10;;;;;;;;;;4970132;28;20043;-87
2023/12/14 14:37:12;;;;;;;0.10;0.10;;;;;;;;;;4965436;28;20402;-87